David L. Griggs — WDE5778 — position and weather

sailwx.info

Track history (hours):
 
Tides and Currents Weather Stations Pressure Air Temp Water Temp Dewpoint Dewpoint Depression Visibility Wind Speed Wind Dir Waves Ship Positions

David L. Griggs

Owner: Marquette Transportation Company, LLC, Paducah, KY. More information available from US FCC via Universal Licensing System and Coast Guard Vessel Documentation Center.

Last reported at 2017-Sep-28 09:29 UTC. Time now 2017-Oct-18 18:22 UTC.
Position N 32°47' W 091°09'.
Warning: this ship's position is 20 days out of date.

Length 39 m; draft 2.7 m.

Type: Tow > 200 m length. MMSI: 367371510.

Date/timePositionNaut miles runAvg speedWind from/ knotsBaromVisibWave heightAir tempDewpointWater temp
2017-Sep-28 09:29N 32°47' W 091°09'2 4.5
2017-Sep-28 09:00N 32°45' W 091°09'4 1.6
2017-Sep-28 06:51N 32°44' W 091°05'5 2.9
2017-Sep-28 05:15N 32°40' W 091°08'1 3.5
2017-Sep-28 05:00N 32°40' W 091°08'2 3.5
2017-Sep-28 04:30N 32°38' W 091°09'2 4.5
2017-Sep-28 04:00N 32°36' W 091°09'2 4.9
2017-Sep-28 03:30N 32°34' W 091°06'2 4.5
2017-Sep-28 03:00N 32°32' W 091°06'2 4.5
2017-Sep-28 02:30N 32°30' W 091°07'3 5.2
2017-Sep-28 02:00N 32°28' W 091°06'3 5.2
2017-Sep-28 01:30N 32°26' W 091°03'2 4.9
2017-Sep-28 01:00N 32°25' W 091°00'2 4.0
2017-Sep-28 00:30N 32°23' W 090°60'2 4.7
2017-Sep-28 00:00N 32°21' W 090°60'3 5.3
2017-Sep-27 23:31N 32°21' W 090°57'2 3.9
2017-Sep-27 23:00N 32°20' W 090°54'2 4.9
2017-Sep-27 22:30N 32°18' W 090°55'0 0.1
2017-Sep-27 21:58N 32°18' W 090°55'0 0.0
2017-Sep-27 21:28N 32°18' W 090°55'0 0.0
2017-Sep-27 20:58N 32°18' W 090°55'0 0.0
2017-Sep-27 20:28N 32°18' W 090°55'0 0.1
2017-Sep-27 19:58N 32°18' W 090°55'2 4.0
2017-Sep-27 19:30N 32°17' W 090°57'2 4.4
2017-Sep-27 19:00N 32°15' W 090°59'2 4.7
2017-Sep-27 18:30N 32°13' W 090°59'3 5.0
2017-Sep-27 18:00N 32°11' W 090°60'2 4.7
2017-Sep-27 17:30N 32°08' W 091°00'2 4.2
2017-Sep-27 17:00N 32°07' W 091°02'3 5.3
2017-Sep-27 16:28N 32°08' W 091°06'7 4.2
2017-Sep-27 14:48N 32°01' W 091°04'13 4.4
2017-Sep-27 11:53N 31°52' W 091°15'2 4.5
2017-Sep-27 11:22N 31°51' W 091°18'  
Track history (hours):
 
Tides and Currents Weather Stations Pressure Air Temp Water Temp Dewpoint Dewpoint Depression Visibility Wind Speed Wind Dir Waves Ship Positions

David L. Griggs

Owner: Marquette Transportation Company, LLC, Paducah, KY. More information available from US FCC via Universal Licensing System and Coast Guard Vessel Documentation Center.

Last reported at 2017-Sep-28 09:29 UTC. Time now 2017-Oct-18 18:22 UTC.
Position N 32°47' W 091°09'.
Warning: this ship's position is 20 days out of date.

Length 39 m; draft 2.7 m.

Type: Tow > 200 m length. MMSI: 367371510.

Date/timePositionNaut miles runAvg speedWind from/ knotsBaromVisibWave heightAir tempDewpointWater temp
2017-Sep-28 09:29N 32°47' W 091°09'2 4.5
2017-Sep-28 09:00N 32°45' W 091°09'4 1.6
2017-Sep-28 06:51N 32°44' W 091°05'5 2.9
2017-Sep-28 05:15N 32°40' W 091°08'1 3.5
2017-Sep-28 05:00N 32°40' W 091°08'2 3.5
2017-Sep-28 04:30N 32°38' W 091°09'2 4.5
2017-Sep-28 04:00N 32°36' W 091°09'2 4.9
2017-Sep-28 03:30N 32°34' W 091°06'2 4.5
2017-Sep-28 03:00N 32°32' W 091°06'2 4.5
2017-Sep-28 02:30N 32°30' W 091°07'3 5.2
2017-Sep-28 02:00N 32°28' W 091°06'3 5.2
2017-Sep-28 01:30N 32°26' W 091°03'2 4.9
2017-Sep-28 01:00N 32°25' W 091°00'2 4.0
2017-Sep-28 00:30N 32°23' W 090°60'2 4.7
2017-Sep-28 00:00N 32°21' W 090°60'3 5.3
2017-Sep-27 23:31N 32°21' W 090°57'2 3.9
2017-Sep-27 23:00N 32°20' W 090°54'2 4.9
2017-Sep-27 22:30N 32°18' W 090°55'0 0.1
2017-Sep-27 21:58N 32°18' W 090°55'0 0.0
2017-Sep-27 21:28N 32°18' W 090°55'0 0.0
2017-Sep-27 20:58N 32°18' W 090°55'0 0.0
2017-Sep-27 20:28N 32°18' W 090°55'0 0.1
2017-Sep-27 19:58N 32°18' W 090°55'2 4.0
2017-Sep-27 19:30N 32°17' W 090°57'2 4.4
2017-Sep-27 19:00N 32°15' W 090°59'2 4.7
2017-Sep-27 18:30N 32°13' W 090°59'3 5.0
2017-Sep-27 18:00N 32°11' W 090°60'2 4.7
2017-Sep-27 17:30N 32°08' W 091°00'2 4.2
2017-Sep-27 17:00N 32°07' W 091°02'3 5.3
2017-Sep-27 16:28N 32°08' W 091°06'7 4.2
2017-Sep-27 14:48N 32°01' W 091°04'13 4.4
2017-Sep-27 11:53N 31°52' W 091°15'2 4.5
2017-Sep-27 11:22N 31°51' W 091°18'  

Dump ship's entire track history